Time;durP1;ratioP1;P1;durP2;ratioP2;P2;SDS_P1;SDS_P2;PMS_P1;PMS_P2;Temp;Humidity;BMP_temperature;BMP_pressure;BME280_temperature;BME280_humidity;BME280_pressure;Samples;Min_cycle;Max_cycle;Signal;HPM_P1;HPM_P2
2023/04/10 00:00:03;;;;;;;12.57;9.73;;;;;;;4.23;100.00;101428.41;703286;28;757;-65
2023/04/10 00:00:28;;;;;;;11.90;9.32;;;;;;;4.20;100.00;101420.53;702525;28;734;-62
2023/04/10 00:00:52;;;;;;;13.82;9.63;;;;;;;4.19;100.00;101429.13;701660;28;1556;-61
2023/04/10 00:01:12;;;;;;;12.50;9.38;;;;;;;4.18;100.00;101422.19;702524;28;935;-62
2023/04/10 00:01:34;;;;;;;12.93;9.88;;;;;;;4.18;100.00;101419.59;699759;28;1003;-64
2023/04/10 00:01:55;;;;;;;13.65;9.98;;;;;;;4.20;100.00;101420.53;697023;28;1549;-62
2023/04/10 00:02:15;;;;;;;12.60;9.63;;;;;;;4.22;100.00;101424.03;695835;28;4367;-61
2023/04/10 00:02:36;;;;;;;13.30;9.97;;;;;;;4.22;100.00;101429.22;696930;28;1083;-62
2023/04/10 00:03:00;;;;;;;12.88;9.93;;;;;;;4.23;100.00;101425.81;697485;28;1534;-61
2023/04/10 00:03:20;;;;;;;13.23;9.27;;;;;;;4.23;100.00;101423.22;698687;28;984;-62
2023/04/10 00:03:41;;;;;;;13.30;10.00;;;;;;;4.24;100.00;101422.41;701531;28;983;-61
2023/04/10 00:04:02;;;;;;;12.80;9.75;;;;;;;4.21;100.00;101419.69;703378;28;868;-64
2023/04/10 00:04:22;;;;;;;13.35;9.80;;;;;;;4.23;100.00;101420.63;700594;28;1240;-62
2023/04/10 00:04:42;;;;;;;12.90;9.93;;;;;;;4.21;100.00;101425.75;700680;28;1466;-62
2023/04/10 00:05:05;;;;;;;12.88;10.20;;;;;;;4.20;100.00;101421.41;700312;28;924;-61
2023/04/10 00:05:26;;;;;;;13.48;10.00;;;;;;;4.21;100.00;101419.69;699672;28;4390;-62
2023/04/10 00:05:46;;;;;;;13.63;10.20;;;;;;;4.20;100.00;101417.94;698612;28;954;-61
2023/04/10 00:06:06;;;;;;;15.40;10.80;;;;;;;4.19;100.00;101419.63;701328;28;1003;-62
2023/04/10 00:06:27;;;;;;;13.95;10.50;;;;;;;4.19;100.00;101421.34;702453;28;836;-61
2023/04/10 00:06:48;;;;;;;14.05;10.82;;;;;;;4.17;100.00;101425.63;701249;28;1423;-61
2023/04/10 00:07:11;;;;;;;13.70;10.83;;;;;;;4.18;100.00;101422.19;703647;28;880;-62
2023/04/10 00:07:32;;;;;;;14.18;10.73;;;;;;;4.15;100.00;101420.34;702120;28;949;-61
2023/04/10 00:07:52;;;;;;;14.35;10.85;;;;;;;4.13;100.00;101424.63;701947;28;1492;-62
2023/04/10 00:08:12;;;;;;;14.07;10.65;;;;;;;4.12;100.00;101420.25;701345;28;4405;-62
2023/04/10 00:08:33;;;;;;;14.03;10.77;;;;;;;4.12;100.00;101421.97;703135;28;773;-61
2023/04/10 00:08:53;;;;;;;12.98;10.55;;;;;;;4.13;100.00;101421.16;699398;28;1479;-61
2023/04/10 00:09:14;;;;;;;13.87;10.73;;;;;;;4.12;100.00;101420.25;699745;28;859;-62
2023/04/10 00:09:35;;;;;;;14.80;11.07;;;;;;;4.11;100.00;101417.63;699771;28;1073;-62
2023/04/10 00:09:55;;;;;;;14.43;10.70;;;;;;;4.11;100.00;101415.03;699616;28;1426;-63
2023/04/10 00:10:15;;;;;;;14.70;11.10;;;;;;;4.10;100.00;101427.13;699452;28;900;-61
2023/04/10 00:10:36;;;;;;;13.80;10.60;;;;;;;4.09;100.00;101417.56;699963;28;913;-63
2023/04/10 00:10:56;;;;;;;13.82;10.48;;;;;;;4.09;100.00;101421.03;702444;28;1511;-64
2023/04/10 00:11:16;;;;;;;14.13;10.60;;;;;;;4.09;100.00;101418.44;701950;28;4416;-62
2023/04/10 00:11:37;;;;;;;14.85;11.02;;;;;;;4.11;100.00;101418.50;703012;28;986;-64
2023/04/10 00:11:58;;;;;;;16.33;10.93;;;;;;;4.11;100.00;101417.63;702323;28;1457;-62
2023/04/10 00:12:19;;;;;;;14.43;11.10;;;;;;;4.10;100.00;101414.16;703546;28;967;-63
2023/04/10 00:12:39;;;;;;;13.50;10.32;;;;;;;4.07;100.00;101417.53;702432;28;963;-62
2023/04/10 00:13:02;;;;;;;13.15;10.38;;;;;;;4.07;100.00;101411.44;699997;28;1442;-62
2023/04/10 00:13:22;;;;;;;13.85;10.23;;;;;;;4.07;100.00;101414.03;700670;28;1921;-61
2023/04/10 00:13:42;;;;;;;14.95;10.25;;;;;;;4.09;100.00;101415.00;699429;28;1592;-61
2023/04/10 00:14:03;;;;;;;15.13;10.50;;;;;;;4.06;100.00;101414.91;696560;28;1244;-61
2023/04/10 00:14:23;;;;;;;14.98;10.88;;;;;;;4.03;100.00;101410.50;697010;28;4387;-62
2023/04/10 00:14:44;;;;;;;14.50;10.73;;;;;;;4.04;100.00;101412.25;697724;28;1610;-61
2023/04/10 00:15:05;;;;;;;13.48;10.52;;;;;;;4.06;100.00;101413.19;699415;28;805;-62
2023/04/10 00:15:25;;;;;;;15.52;10.70;;;;;;;4.07;100.00;101412.34;700522;28;817;-61
2023/04/10 00:15:47;;;;;;;14.60;10.27;;;;;;;4.09;100.00;101410.69;700646;28;1469;-62
2023/04/10 00:16:07;;;;;;;13.95;10.52;;;;;;;4.09;100.00;101410.69;702517;28;994;-62
2023/04/10 00:16:27;;;;;;;13.17;10.40;;;;;;;4.09;100.00;101405.50;702371;28;900;-61
2023/04/10 00:16:48;;;;;;;13.18;9.88;;;;;;;4.09;100.00;101405.50;701697;28;930;-61
2023/04/10 00:17:09;;;;;;;13.15;10.20;;;;;;;4.10;100.00;101411.59;702244;28;4372;-62
2023/04/10 00:17:29;;;;;;;13.07;10.20;;;;;;;4.10;100.00;101409.00;702482;28;806;-61
2023/04/10 00:17:53;;;;;;;12.90;10.15;;;;;;;4.09;100.00;101397.75;701971;28;1463;-64
2023/04/10 00:18:14;;;;;;;12.82;9.95;;;;;;;4.11;100.00;101405.56;702730;28;752;-61
2023/04/10 00:18:34;;;;;;;12.97;10.07;;;;;;;4.08;100.00;101406.38;702439;28;822;-62
2023/04/10 00:18:55;;;;;;;12.73;10.02;;;;;;;4.08;100.00;101402.88;700445;28;1545;-62
2023/04/10 00:19:15;;;;;;;13.20;10.13;;;;;;;4.09;100.00;101400.34;699913;28;787;-62
2023/04/10 00:19:36;;;;;;;14.27;10.32;;;;;;;4.11;100.00;101402.09;699803;28;959;-61
2023/04/10 00:19:58;;;;;;;14.90;10.18;;;;;;;4.09;100.00;101397.75;699504;28;1385;-64
2023/04/10 00:20:18;;;;;;;13.98;10.02;;;;;;;4.09;100.00;101399.47;699910;28;4372;-63
2023/04/10 00:20:38;;;;;;;12.63;10.03;;;;;;;4.07;100.00;101401.09;700187;28;936;-61
2023/04/10 00:20:59;;;;;;;12.97;9.90;;;;;;;4.06;100.00;101394.19;702224;28;1453;-63
2023/04/10 00:21:19;;;;;;;13.52;10.35;;;;;;;4.06;100.00;101400.25;702077;28;928;-61
2023/04/10 00:21:40;;;;;;;13.43;10.50;;;;;;;4.07;100.00;101396.84;703210;28;864;-62
2023/04/10 00:22:01;;;;;;;12.90;10.15;;;;;;;4.05;100.00;101393.28;700330;28;1460;-61
2023/04/10 00:22:21;;;;;;;13.50;10.63;;;;;;;4.05;100.00;101393.28;702185;28;1169;-61
2023/04/10 00:22:41;;;;;;;14.00;10.00;;;;;;;4.05;100.00;101402.78;702673;28;817;-62
2023/04/10 00:23:02;;;;;;;13.98;9.98;;;;;;;4.03;100.00;101389.78;702627;28;1061;-61
2023/04/10 00:23:23;;;;;;;13.40;9.80;;;;;;;4.03;100.00;101401.84;701242;28;4324;-62
2023/04/10 00:23:43;;;;;;;14.15;10.00;;;;;;;4.01;100.00;101401.78;699130;28;1589;-64
2023/04/10 00:24:06;;;;;;;13.47;10.17;;;;;;;3.97;100.00;101405.09;698855;28;1042;-61
2023/04/10 00:24:26;;;;;;;13.40;10.18;;;;;;;3.95;100.00;101390.38;697898;28;932;-62
2023/04/10 00:24:46;;;;;;;13.02;10.43;;;;;;;3.92;100.00;101396.31;698288;28;1569;-62
2023/04/10 00:25:07;;;;;;;14.93;10.67;;;;;;;3.90;100.00;101398.84;698395;28;1005;-64
2023/04/10 00:25:27;;;;;;;14.88;10.60;;;;;;;3.89;100.00;101393.59;698742;28;833;-61
2023/04/10 00:25:48;;;;;;;13.57;10.27;;;;;;;3.90;100.00;101396.28;701028;28;1446;-61
2023/04/10 00:26:09;;;;;;;13.77;9.77;;;;;;;3.92;100.00;101396.31;698741;28;4577;-61
2023/04/10 00:26:29;;;;;;;13.35;9.85;;;;;;;3.94;100.00;101404.13;697926;28;1042;-61
2023/04/10 00:26:50;;;;;;;13.47;10.17;;;;;;;3.94;100.00;101399.81;698376;28;2044;-61
2023/04/10 00:27:10;;;;;;;13.18;10.15;;;;;;;3.96;100.00;101403.34;698717;28;798;-61
2023/04/10 00:27:30;;;;;;;13.10;9.53;;;;;;;3.96;100.00;101398.19;698586;28;908;-61
2023/04/10 00:27:52;;;;;;;12.83;9.97;;;;;;;3.99;100.00;101405.13;698191;28;1553;-61
2023/04/10 00:28:14;;;;;;;13.38;9.93;;;;;;;3.97;100.00;101397.31;701742;28;904;-61
2023/04/10 00:28:37;;;;;;;12.98;9.77;;;;;;;3.98;100.00;101400.81;702268;28;817;-61
2023/04/10 00:28:58;;;;;;;13.02;10.18;;;;;;;3.97;100.00;101401.63;699961;28;1446;-61
2023/04/10 00:29:18;;;;;;;14.23;10.57;;;;;;;3.97;100.00;101399.06;699427;28;4359;-61
2023/04/10 00:29:39;;;;;;;14.57;10.35;;;;;;;3.95;100.00;101400.72;700203;28;945;-62
2023/04/10 00:30:01;;;;;;;13.37;9.90;;;;;;;3.96;100.00;101405.94;699393;28;1478;-61
2023/04/10 00:30:21;;;;;;;12.27;9.73;;;;;;;3.96;100.00;101392.09;696700;28;1094;-61
2023/04/10 00:30:42;;;;;;;12.85;10.10;;;;;;;3.96;100.00;101397.28;697493;28;1454;-61
2023/04/10 00:31:05;;;;;;;12.60;9.30;;;;;;;3.96;100.00;101399.88;699782;28;809;-61
2023/04/10 00:31:26;;;;;;;12.23;9.10;;;;;;;3.96;100.00;101392.09;700380;28;899;-61
2023/04/10 00:31:46;;;;;;;12.52;9.65;;;;;;;3.95;100.00;101398.13;699591;28;1588;-61
2023/04/10 00:32:07;;;;;;;13.27;9.70;;;;;;;3.92;100.00;101391.16;697217;28;4316;-62
2023/04/10 00:32:27;;;;;;;12.65;9.65;;;;;;;3.92;100.00;101397.19;700018;28;861;-61
2023/04/10 00:32:47;;;;;;;12.30;9.70;;;;;;;3.93;100.00;101400.63;697847;28;1493;-61
2023/04/10 00:33:08;;;;;;;12.43;9.57;;;;;;;3.93;100.00;101395.47;693877;28;1350;-61
2023/04/10 00:33:28;;;;;;;13.10;9.23;;;;;;;3.92;100.00;101393.72;694011;28;1969;-61
2023/04/10 00:33:49;;;;;;;13.87;10.10;;;;;;;3.91;100.00;101384.19;691795;28;1500;-61
2023/04/10 00:34:09;;;;;;;13.40;10.10;;;;;;;3.88;100.00;101389.28;694837;28;817;-61
2023/04/10 00:34:30;;;;;;;14.27;10.13;;;;;;;3.89;100.00;101397.09;694423;28;893;-61
2023/04/10 00:34:50;;;;;;;13.60;9.48;;;;;;;3.91;100.00;101391.97;696173;28;1496;-61
2023/04/10 00:35:10;;;;;;;14.00;9.50;;;;;;;3.90;100.00;101388.50;695295;28;4383;-61
2023/04/10 00:35:31;;;;;;;12.10;8.97;;;;;;;3.88;100.00;101397.03;697815;28;1081;-62
2023/04/10 00:35:52;;;;;;;12.23;9.35;;;;;;;3.89;100.00;101388.44;699988;28;1608;-61
2023/04/10 00:36:13;;;;;;;12.70;9.45;;;;;;;3.89;100.00;101388.44;699708;28;1330;-61
2023/04/10 00:36:34;;;;;;;12.35;9.52;;;;;;;3.90;100.00;101387.59;700557;28;872;-61
2023/04/10 00:36:55;;;;;;;12.30;9.35;;;;;;;3.89;100.00;101391.91;698964;28;1561;-61
2023/04/10 00:37:16;;;;;;;13.05;9.43;;;;;;;3.89;100.00;101388.44;700085;28;1145;-63
2023/04/10 00:37:39;;;;;;;12.50;9.82;;;;;;;3.90;100.00;101392.78;697319;28;1324;-62
2023/04/10 00:37:59;;;;;;;12.57;9.55;;;;;;;3.88;100.00;101391.88;697330;28;1423;-61
2023/04/10 00:38:20;;;;;;;12.97;9.47;;;;;;;3.89;100.00;101396.19;697457;28;4919;-61
2023/04/10 00:38:41;;;;;;;13.65;9.45;;;;;;;3.89;100.00;101386.75;698361;28;1564;-61
2023/04/10 00:39:02;;;;;;;14.40;10.03;;;;;;;3.91;100.00;101386.78;694898;28;1436;-62
2023/04/10 00:39:22;;;;;;;12.95;9.48;;;;;;;3.88;100.00;101384.97;699963;28;848;-61
2023/04/10 00:39:42;;;;;;;13.13;9.30;;;;;;;3.89;100.00;101385.84;693881;28;1509;-61
2023/04/10 00:40:06;;;;;;;12.60;9.15;;;;;;;3.88;100.00;101384.97;694582;28;896;-62
2023/04/10 00:40:29;;;;;;;13.75;10.27;;;;;;;3.90;100.00;101383.34;695227;28;5390;-61
2023/04/10 00:40:49;;;;;;;12.30;9.15;;;;;;;3.90;100.00;101383.34;698101;28;1066;-62
2023/04/10 00:41:09;;;;;;;12.20;9.43;;;;;;;3.89;100.00;101380.66;698857;28;4562;-61
2023/04/10 00:41:30;;;;;;;12.13;9.13;;;;;;;3.91;100.00;101391.97;701526;28;945;-61
2023/04/10 00:41:50;;;;;;;12.17;9.00;;;;;;;3.92;100.00;101388.56;697951;28;1563;-61
2023/04/10 00:42:10;;;;;;;11.90;9.13;;;;;;;3.92;100.00;101391.16;698565;28;983;-61
2023/04/10 00:42:32;;;;;;;12.07;8.97;;;;;;;3.91;100.00;101385.06;695814;28;1166;-61
2023/04/10 00:42:52;;;;;;;13.18;9.40;;;;;;;3.90;100.00;101387.59;695543;28;1444;-61
2023/04/10 00:43:13;;;;;;;13.00;9.77;;;;;;;3.89;100.00;101385.84;693505;28;987;-61
2023/04/10 00:43:35;;;;;;;12.75;9.38;;;;;;;3.89;100.00;101384.16;695115;28;939;-61
2023/04/10 00:43:56;;;;;;;12.57;9.20;;;;;;;3.87;100.00;101384.91;698728;28;1438;-62
2023/04/10 00:44:16;;;;;;;12.87;9.47;;;;;;;3.87;100.00;101384.91;699592;28;4412;-62
2023/04/10 00:44:37;;;;;;;12.13;9.38;;;;;;;3.85;100.00;101386.56;703359;28;900;-62
2023/04/10 00:44:58;;;;;;;13.43;9.40;;;;;;;3.81;100.00;101384.69;700572;28;1490;-63
2023/04/10 00:45:19;;;;;;;12.90;9.55;;;;;;;3.80;100.00;101377.78;698907;28;971;-62
2023/04/10 00:45:40;;;;;;;12.07;9.20;;;;;;;3.79;100.00;101378.59;700022;28;983;-61
2023/04/10 00:46:00;;;;;;;13.38;9.55;;;;;;;3.79;100.00;101373.44;700572;28;1467;-61
2023/04/10 00:46:20;;;;;;;12.10;9.37;;;;;;;3.77;100.00;101381.16;700719;28;790;-61
2023/04/10 00:46:41;;;;;;;12.27;9.37;;;;;;;3.74;100.00;101375.88;700207;28;983;-63
2023/04/10 00:47:03;;;;;;;13.30;9.35;;;;;;;3.73;100.00;101380.16;703644;28;1477;-61
2023/04/10 00:47:25;;;;;;;12.98;9.50;;;;;;;3.75;100.00;101378.50;699461;28;4506;-62
2023/04/10 00:47:45;;;;;;;12.95;9.52;;;;;;;3.77;100.00;101382.84;697381;28;1473;-61
2023/04/10 00:48:06;;;;;;;11.57;9.30;;;;;;;3.77;100.00;101380.25;695403;28;940;-61
2023/04/10 00:48:27;;;;;;;12.13;9.20;;;;;;;3.77;100.00;101380.25;695011;28;1179;-61
2023/04/10 00:48:47;;;;;;;12.70;9.25;;;;;;;3.75;100.00;101381.09;694897;28;1464;-61
2023/04/10 00:49:08;;;;;;;13.07;9.53;;;;;;;3.76;100.00;101384.53;695615;28;1094;-61
2023/04/10 00:49:29;;;;;;;12.63;9.68;;;;;;;3.77;100.00;101375.97;695602;28;876;-61
2023/04/10 00:49:50;;;;;;;13.13;9.60;;;;;;;3.78;100.00;101377.75;694841;28;1424;-61
2023/04/10 00:50:11;;;;;;;13.20;9.25;;;;;;;3.79;100.00;101378.59;698405;28;4348;-61
2023/04/10 00:50:31;;;;;;;14.07;9.60;;;;;;;3.78;100.00;101374.25;701048;28;1616;-61
2023/04/10 00:50:52;;;;;;;12.82;9.40;;;;;;;3.77;100.00;101381.16;697912;28;1534;-61
2023/04/10 00:51:13;;;;;;;11.57;9.23;;;;;;;3.77;100.00;101375.97;699061;28;1318;-61
2023/04/10 00:51:35;;;;;;;11.47;9.20;;;;;;;3.80;100.00;101375.19;698079;28;896;-61
2023/04/10 00:51:55;;;;;;;11.88;9.40;;;;;;;3.83;100.00;101376.16;697073;28;2143;-64
2023/04/10 00:52:16;;;;;;;12.53;9.53;;;;;;;3.83;100.00;101372.72;695062;28;908;-61
2023/04/10 00:52:37;;;;;;;13.50;9.50;;;;;;;3.83;100.00;101376.16;695572;28;842;-63
2023/04/10 00:52:58;;;;;;;12.60;9.20;;;;;;;3.84;100.00;101374.47;697145;28;1428;-62
2023/04/10 00:53:18;;;;;;;12.00;9.43;;;;;;;3.84;100.00;101371.91;695832;28;4379;-61
2023/04/10 00:53:38;;;;;;;12.20;9.10;;;;;;;3.80;100.00;101375.19;697340;28;920;-61
2023/04/10 00:54:00;;;;;;;12.93;9.60;;;;;;;3.80;100.00;101370.03;697160;28;1477;-61
2023/04/10 00:54:22;;;;;;;12.45;9.73;;;;;;;3.80;100.00;101370.03;695507;28;1273;-61
2023/04/10 00:54:42;;;;;;;13.20;9.60;;;;;;;3.79;100.00;101365.66;695959;28;1476;-61
2023/04/10 00:55:04;;;;;;;13.23;9.52;;;;;;;3.78;100.00;101369.06;697168;28;773;-61
2023/04/10 00:55:25;;;;;;;12.63;9.68;;;;;;;3.79;100.00;101370.84;697728;28;3519;-63
2023/04/10 00:55:45;;;;;;;12.63;9.48;;;;;;;3.81;100.00;101371.75;698778;28;1671;-62
2023/04/10 00:56:06;;;;;;;11.77;9.10;;;;;;;3.79;100.00;101368.25;700681;28;1070;-62
2023/04/10 00:56:28;;;;;;;11.70;8.98;;;;;;;3.79;100.00;101371.72;698761;28;4862;-62
2023/04/10 00:56:49;;;;;;;12.38;9.40;;;;;;;3.77;100.00;101365.63;699318;28;1423;-61
2023/04/10 00:57:10;;;;;;;12.57;9.40;;;;;;;3.79;100.00;101368.25;699290;28;809;-61
2023/04/10 00:57:32;;;;;;;13.13;9.48;;;;;;;3.79;100.00;101368.25;695806;28;1435;-61
2023/04/10 00:57:55;;;;;;;12.30;9.38;;;;;;;3.78;100.00;101366.50;694240;28;1431;-61
2023/04/10 00:58:15;;;;;;;11.43;8.93;;;;;;;3.77;100.00;101375.06;696643;28;972;-62
2023/04/10 00:58:36;;;;;;;11.60;8.82;;;;;;;3.69;100.00;101367.94;699169;28;860;-61
2023/04/10 00:58:56;;;;;;;11.47;8.97;;;;;;;3.69;100.00;101360.19;695844;28;1416;-61
2023/04/10 00:59:19;;;;;;;11.57;8.90;;;;;;;3.70;100.00;101364.53;696550;28;4510;-60
2023/04/10 00:59:41;;;;;;;12.45;9.43;;;;;;;3.69;100.00;101360.19;699724;28;912;-61
2023/04/10 01:00:03;;;;;;;11.82;9.35;;;;;;;3.70;100.00;101368.84;698404;28;1503;-61
2023/04/10 01:00:23;;;;;;;12.75;9.30;;;;;;;3.69;100.00;101361.91;699152;28;841;-61
2023/04/10 01:00:46;;;;;;;12.18;9.10;;;;;;;3.70;100.00;101369.69;696742;28;1499;-61
2023/04/10 01:01:07;;;;;;;12.18;9.43;;;;;;;3.68;100.00;101363.63;693394;28;1235;-62
2023/04/10 01:01:27;;;;;;;11.70;9.20;;;;;;;3.67;100.00;101359.25;696009;28;991;-61
2023/04/10 01:01:50;;;;;;;11.95;9.48;;;;;;;3.69;100.00;101367.06;695199;28;907;-61
2023/04/10 01:02:11;;;;;;;12.50;9.97;;;;;;;3.69;100.00;101362.75;694867;28;4525;-62
2023/04/10 01:02:32;;;;;;;12.73;9.82;;;;;;;3.68;100.00;101365.28;697184;28;931;-61
2023/04/10 01:02:54;;;;;;;12.87;9.87;;;;;;;3.68;100.00;101358.44;698338;28;1603;-62
2023/04/10 01:03:17;;;;;;;12.07;9.35;;;;;;;3.68;100.00;101366.19;698489;28;951;-61
2023/04/10 01:03:42;;;;;;;12.10;8.95;;;;;;;3.69;100.00;101357.59;699915;28;887;-61
2023/04/10 01:04:03;;;;;;;12.45;9.20;;;;;;;3.69;100.00;101357.59;700162;28;958;-61
2023/04/10 01:04:25;;;;;;;12.77;9.37;;;;;;;3.69;100.00;101365.34;700361;28;967;-61
2023/04/10 01:04:46;;;;;;;11.70;9.07;;;;;;;3.67;100.00;101361.84;701583;28;1516;-61
2023/04/10 01:05:09;;;;;;;11.32;8.63;;;;;;;3.66;100.00;101361.78;701760;28;4672;-62
2023/04/10 01:05:34;;;;;;;11.77;8.77;;;;;;;3.68;100.00;101360.13;699168;28;935;-61
2023/04/10 01:06:31;;;;;;;13.63;8.98;;;;;;;3.64;100.00;101358.25;696425;28;1472;-61
2023/04/10 01:06:58;;;;;;;11.88;9.40;;;;;;;3.62;100.00;101359.94;695438;28;1534;-61
2023/04/10 01:07:53;;;;;;;13.18;9.30;;;;;;;3.62;100.00;101358.22;694498;28;1192;-61
2023/04/10 01:08:21;;;;;;;11.35;8.95;;;;;;;3.62;100.00;101355.63;695482;28;4483;-63
2023/04/10 01:09:20;;;;;;;12.55;9.30;;;;;;;3.64;100.00;101359.16;698289;28;839;-62
2023/04/10 01:10:12;;;;;;;12.80;8.95;;;;;;;3.64;100.00;101354.00;703006;28;1018;-62
2023/04/10 01:10:55;;;;;;;12.20;9.55;;;;;;;3.62;100.00;101355.63;696911;28;1989;-61
2023/04/10 01:11:26;;;;;;;12.88;8.90;;;;;;;3.61;100.00;101351.28;702166;28;4513;-61
2023/04/10 01:11:53;;;;;;;11.57;8.90;;;;;;;3.62;100.00;101358.22;702253;28;1556;-61
2023/04/10 01:12:38;;;;;;;12.30;9.02;;;;;;;3.58;100.00;101358.94;701146;28;1936;-61
2023/04/10 01:13:06;;;;;;;11.45;9.10;;;;;;;3.63;100.00;101359.06;700826;28;1659;-61
2023/04/10 01:13:34;;;;;;;12.38;9.43;;;;;;;3.64;100.00;101358.25;698303;28;2266;-61
2023/04/10 01:14:06;;;;;;;11.20;9.02;;;;;;;3.65;100.00;101354.84;698531;28;2304;-61
2023/04/10 01:14:36;;;;;;;11.90;8.50;;;;;;;3.65;100.00;101352.28;700703;28;4999;-61
2023/04/10 01:15:05;;;;;;;11.63;8.90;;;;;;;3.59;100.00;101350.34;697894;28;1496;-61
2023/04/10 01:15:28;;;;;;;11.70;9.00;;;;;;;3.58;100.00;101353.75;700362;28;996;-61
2023/04/10 01:16:00;;;;;;;11.70;9.13;;;;;;;3.58;100.00;101353.75;701359;28;1486;-61
2023/04/10 01:16:37;;;;;;;11.98;9.23;;;;;;;3.58;100.00;101349.44;698816;28;1519;-62
2023/04/10 01:17:01;;;;;;;12.85;9.30;;;;;;;3.57;100.00;101352.00;700661;28;1461;-61
2023/04/10 01:17:35;;;;;;;12.30;9.05;;;;;;;3.58;100.00;101346.00;699813;28;4399;-61
2023/04/10 01:18:15;;;;;;;12.13;9.27;;;;;;;3.57;100.00;101355.47;699846;28;1442;-61
2023/04/10 01:18:43;;;;;;;12.02;9.02;;;;;;;3.58;100.00;101349.44;700193;28;963;-61
2023/04/10 01:19:26;;;;;;;11.88;9.25;;;;;;;3.57;100.00;101352.91;701212;28;828;-61
2023/04/10 01:20:11;;;;;;;12.88;9.55;;;;;;;3.55;100.00;101356.25;700109;28;963;-61
2023/04/10 01:20:36;;;;;;;11.23;9.15;;;;;;;3.58;100.00;101348.59;699518;28;5006;-61
2023/04/10 01:21:01;;;;;;;12.15;9.02;;;;;;;3.57;100.00;101344.22;700786;28;1608;-61
2023/04/10 01:21:22;;;;;;;11.77;9.05;;;;;;;3.56;100.00;101350.25;699750;28;903;-62
2023/04/10 01:21:43;;;;;;;11.95;9.05;;;;;;;3.56;100.00;101351.13;701310;28;1038;-61
2023/04/10 01:22:09;;;;;;;12.65;9.50;;;;;;;3.58;100.00;101353.75;700366;28;1168;-61
2023/04/10 01:23:22;;;;;;;12.38;9.20;;;;;;;3.57;100.00;101349.41;702412;28;1451;-62
2023/04/10 01:24:04;;;;;;;12.68;9.40;;;;;;;3.58;100.00;101348.59;700879;28;4947;-62
2023/04/10 01:24:46;;;;;;;12.48;9.30;;;;;;;3.57;100.00;101352.91;700341;28;946;-61
2023/04/10 01:25:25;;;;;;;12.38;9.15;;;;;;;3.57;100.00;101354.56;699817;28;1058;-61
2023/04/10 01:26:07;;;;;;;11.45;8.93;;;;;;;3.57;100.00;101352.91;700231;28;1505;-61
2023/04/10 01:26:51;;;;;;;11.82;9.20;;;;;;;3.56;100.00;101339.91;698637;28;5073;-61
2023/04/10 01:27:25;;;;;;;11.85;9.68;;;;;;;3.48;100.00;101344.81;698647;28;1362;-61
2023/04/10 01:28:15;;;;;;;11.65;9.35;;;;;;;3.49;100.00;101346.56;698637;28;1653;-61
2023/04/10 01:28:50;;;;;;;12.75;9.45;;;;;;;3.47;100.00;101344.75;690380;28;1240;-61
2023/04/10 01:29:18;;;;;;;12.15;9.55;;;;;;;3.47;100.00;101334.41;689767;28;4417;-63
2023/04/10 01:29:45;;;;;;;12.85;9.60;;;;;;;3.47;100.00;101334.41;696020;28;1291;-61
2023/04/10 01:30:13;;;;;;;11.95;8.98;;;;;;;3.48;100.00;101336.19;695452;28;1215;-61
2023/04/10 01:30:35;;;;;;;12.75;9.65;;;;;;;3.47;100.00;101335.28;696075;28;1244;-63
2023/04/10 01:31:00;;;;;;;11.13;8.80;;;;;;;3.49;100.00;101327.56;695689;28;1939;-60
2023/04/10 01:31:31;;;;;;;12.65;9.15;;;;;;;3.48;100.00;101331.00;696025;28;2014;-61
2023/04/10 01:32:03;;;;;;;11.13;9.07;;;;;;;3.46;100.00;101337.81;694406;28;1725;-61
2023/04/10 01:32:26;;;;;;;12.30;9.68;;;;;;;3.48;100.00;101331.00;693762;28;4350;-61
2023/04/10 01:32:48;;;;;;;12.23;9.38;;;;;;;3.48;100.00;101326.72;694049;28;1626;-61
2023/04/10 01:33:15;;;;;;;11.30;9.05;;;;;;;3.49;100.00;101328.47;695721;28;1517;-61
2023/04/10 01:33:44;;;;;;;11.95;8.88;;;;;;;3.50;100.00;101330.25;695265;28;1285;-61
2023/04/10 01:34:14;;;;;;;12.65;9.23;;;;;;;3.52;100.00;101328.56;694348;28;885;-63
2023/04/10 01:34:42;;;;;;;12.77;9.75;;;;;;;3.49;100.00;101328.47;695686;28;975;-61
2023/04/10 01:35:06;;;;;;;11.95;9.23;;;;;;;3.48;100.00;101328.44;695289;28;2540;-61
2023/04/10 01:35:29;;;;;;;12.45;9.45;;;;;;;3.49;100.00;101323.31;697649;28;4277;-61
2023/04/10 01:35:54;;;;;;;12.27;9.25;;;;;;;3.51;100.00;101325.94;698453;28;1561;-61
2023/04/10 01:36:23;;;;;;;12.90;9.45;;;;;;;3.51;100.00;101318.19;698758;28;872;-61
2023/04/10 01:36:54;;;;;;;11.63;9.13;;;;;;;3.51;100.00;101320.78;698425;28;1498;-64
2023/04/10 01:37:36;;;;;;;12.73;9.55;;;;;;;3.53;100.00;101322.59;697163;28;1259;-61
2023/04/10 01:38:00;;;;;;;11.80;9.13;;;;;;;3.53;100.00;101327.75;698792;28;1615;-61
2023/04/10 01:38:23;;;;;;;12.90;9.43;;;;;;;3.52;100.00;101322.53;695810;28;4344;-61
2023/04/10 01:38:45;;;;;;;13.18;9.90;;;;;;;3.53;100.00;101326.84;697247;28;1984;-62
2023/04/10 01:39:07;;;;;;;13.25;9.68;;;;;;;3.54;100.00;101318.28;697112;28;1215;-61
2023/04/10 01:39:30;;;;;;;13.20;9.55;;;;;;;3.55;100.00;101322.63;698862;28;975;-63
2023/04/10 01:40:05;;;;;;;11.98;9.43;;;;;;;3.58;100.00;101327.91;694232;28;1480;-61
2023/04/10 01:40:28;;;;;;;12.60;9.75;;;;;;;3.57;100.00;101321.88;692204;28;5394;-61
2023/04/10 01:40:52;;;;;;;12.25;9.45;;;;;;;3.59;100.00;101319.34;693361;28;1667;-61
2023/04/10 01:41:21;;;;;;;12.90;9.50;;;;;;;3.60;100.00;101320.19;695575;28;4510;-61
2023/04/10 01:41:44;;;;;;;12.35;9.27;;;;;;;3.58;100.00;101321.00;689623;28;1302;-61
2023/04/10 01:42:07;;;;;;;12.40;9.13;;;;;;;3.58;100.00;101318.44;693124;28;1043;-61
2023/04/10 01:42:37;;;;;;;12.30;9.00;;;;;;;3.61;100.00;101320.25;693188;28;1452;-61
2023/04/10 01:43:01;;;;;;;11.20;8.82;;;;;;;3.62;100.00;101319.44;691829;28;1187;-61
2023/04/10 01:43:33;;;;;;;12.02;9.10;;;;;;;3.63;100.00;101316.03;692460;28;1263;-61
2023/04/10 01:43:54;;;;;;;12.35;9.40;;;;;;;3.62;100.00;101316.84;692799;28;1054;-61
2023/04/10 01:44:18;;;;;;;11.70;9.07;;;;;;;3.64;100.00;101314.31;692734;28;4511;-62
2023/04/10 01:44:41;;;;;;;12.10;9.48;;;;;;;3.62;100.00;101316.84;692288;28;1382;-62
2023/04/10 01:45:05;;;;;;;12.75;9.50;;;;;;;3.63;100.00;101317.72;695434;28;2177;-60
2023/04/10 01:45:27;;;;;;;12.27;9.65;;;;;;;3.64;100.00;101316.88;694710;28;1427;-61
2023/04/10 01:45:50;;;;;;;11.98;9.27;;;;;;;3.64;100.00;101320.38;697301;28;1514;-61
2023/04/10 01:46:11;;;;;;;12.18;8.98;;;;;;;3.65;100.00;101323.81;698715;28;1019;-61
2023/04/10 01:46:32;;;;;;;11.75;8.90;;;;;;;3.64;100.00;101322.06;699370;28;1365;-61
2023/04/10 01:46:55;;;;;;;13.27;9.30;;;;;;;3.63;100.00;101316.03;699208;28;1494;-61
2023/04/10 01:47:17;;;;;;;12.38;9.57;;;;;;;3.64;100.00;101317.78;699437;28;4379;-64
2023/04/10 01:47:37;;;;;;;12.35;9.70;;;;;;;3.66;100.00;101325.59;700407;28;1504;-61
2023/04/10 01:47:58;;;;;;;12.20;9.40;;;;;;;3.66;100.00;101318.72;700900;28;1678;-61
2023/04/10 01:48:19;;;;;;;12.10;9.57;;;;;;;3.66;100.00;101315.25;699389;28;1380;-62
2023/04/10 01:48:40;;;;;;;11.68;9.30;;;;;;;3.65;100.00;101319.53;698909;28;793;-61
2023/04/10 01:49:02;;;;;;;13.25;9.82;;;;;;;3.65;100.00;101314.34;694861;28;1503;-61
2023/04/10 01:49:28;;;;;;;12.75;9.55;;;;;;;3.66;100.00;101323.00;693373;28;1243;-61
2023/04/10 01:49:56;;;;;;;13.00;9.77;;;;;;;3.63;100.00;101321.19;691988;28;1468;-61
2023/04/10 01:50:20;;;;;;;12.07;9.32;;;;;;;3.63;100.00;101315.13;694091;28;4376;-61
2023/04/10 01:50:43;;;;;;;13.18;9.65;;;;;;;3.63;100.00;101313.44;695776;28;1255;-64
2023/04/10 01:51:06;;;;;;;12.60;9.38;;;;;;;3.62;100.00;101311.66;698337;28;809;-61
2023/04/10 01:51:29;;;;;;;12.93;10.05;;;;;;;3.62;100.00;101319.44;698807;28;1701;-61
2023/04/10 01:51:50;;;;;;;12.70;10.13;;;;;;;3.61;100.00;101312.50;697601;28;3580;-61
2023/04/10 01:52:12;;;;;;;12.90;9.82;;;;;;;3.64;100.00;101311.72;698331;28;1279;-61
2023/04/10 01:52:34;;;;;;;13.02;10.00;;;;;;;3.64;100.00;101315.19;696003;28;1506;-63